sensor_id;sensor_type;location;lat;lon;timestamp;P1;durP1;ratioP1;P2;durP2;ratioP2
23179;SDS011;11758;45.756;11.432;2022-09-12T00:01:45;1.50;;;1.30;;
23179;SDS011;11758;45.756;11.432;2022-09-12T00:04:11;1.20;;;1.20;;
23179;SDS011;11758;45.756;11.432;2022-09-12T00:06:37;1.40;;;1.40;;
23179;SDS011;11758;45.756;11.432;2022-09-12T00:09:06;1.30;;;1.30;;
23179;SDS011;11758;45.756;11.432;2022-09-12T00:11:34;1.85;;;1.40;;
23179;SDS011;11758;45.756;11.432;2022-09-12T00:14:00;2.25;;;1.30;;
23179;SDS011;11758;45.756;11.432;2022-09-12T00:16:30;1.83;;;1.30;;
23179;SDS011;11758;45.756;11.432;2022-09-12T00:19:06;1.13;;;1.10;;
23179;SDS011;11758;45.756;11.432;2022-09-12T00:21:33;7.78;;;1.30;;
23179;SDS011;11758;45.756;11.432;2022-09-12T00:23:59;3.95;;;1.30;;
23179;SDS011;11758;45.756;11.432;2022-09-12T00:26:26;32.47;;;1.73;;
23179;SDS011;11758;45.756;11.432;2022-09-12T00:28:52;2.45;;;1.38;;
23179;SDS011;11758;45.756;11.432;2022-09-12T00:31:19;1.30;;;1.20;;
23179;SDS011;11758;45.756;11.432;2022-09-12T00:33:48;3.30;;;1.40;;
23179;SDS011;11758;45.756;11.432;2022-09-12T00:36:18;2.47;;;1.20;;
23179;SDS011;11758;45.756;11.432;2022-09-12T00:38:45;1.20;;;1.20;;
23179;SDS011;11758;45.756;11.432;2022-09-12T00:41:18;1.40;;;1.40;;
23179;SDS011;11758;45.756;11.432;2022-09-12T00:43:46;1.17;;;1.17;;
23179;SDS011;11758;45.756;11.432;2022-09-12T00:46:22;2.13;;;1.38;;
23179;SDS011;11758;45.756;11.432;2022-09-12T00:48:53;1.38;;;1.38;;
23179;SDS011;11758;45.756;11.432;2022-09-12T00:51:20;1.48;;;1.38;;
23179;SDS011;11758;45.756;11.432;2022-09-12T00:53:47;1.58;;;1.30;;
23179;SDS011;11758;45.756;11.432;2022-09-12T00:56:14;1.48;;;1.38;;
23179;SDS011;11758;45.756;11.432;2022-09-12T00:58:43;1.95;;;1.15;;
23179;SDS011;11758;45.756;11.432;2022-09-12T01:01:10;4.45;;;1.67;;
23179;SDS011;11758;45.756;11.432;2022-09-12T01:03:36;1.58;;;1.40;;
23179;SDS011;11758;45.756;11.432;2022-09-12T01:06:05;1.25;;;1.25;;
23179;SDS011;11758;45.756;11.432;2022-09-12T01:08:33;1.20;;;1.20;;
23179;SDS011;11758;45.756;11.432;2022-09-12T01:11:01;1.40;;;1.30;;
23179;SDS011;11758;45.756;11.432;2022-09-12T01:13:28;1.95;;;1.45;;
23179;SDS011;11758;45.756;11.432;2022-09-12T01:15:55;6.20;;;1.38;;
23179;SDS011;11758;45.756;11.432;2022-09-12T01:18:33;1.50;;;1.40;;
23179;SDS011;11758;45.756;11.432;2022-09-12T01:21:08;2.83;;;1.10;;
23179;SDS011;11758;45.756;11.432;2022-09-12T01:31:33;2.05;;;1.30;;
23179;SDS011;11758;45.756;11.432;2022-09-12T01:36:43;1.33;;;1.33;;
23179;SDS011;11758;45.756;11.432;2022-09-12T01:39:24;1.85;;;1.13;;
23179;SDS011;11758;45.756;11.432;2022-09-12T01:41:58;1.33;;;1.23;;
23179;SDS011;11758;45.756;11.432;2022-09-12T01:44:34;1.60;;;1.50;;
23179;SDS011;11758;45.756;11.432;2022-09-12T01:47:09;3.22;;;1.33;;
23179;SDS011;11758;45.756;11.432;2022-09-12T01:49:39;3.38;;;1.33;;
23179;SDS011;11758;45.756;11.432;2022-09-12T01:54:41;1.30;;;1.20;;
23179;SDS011;11758;45.756;11.432;2022-09-12T01:57:10;3.55;;;1.08;;
23179;SDS011;11758;45.756;11.432;2022-09-12T01:59:48;1.95;;;1.42;;
23179;SDS011;11758;45.756;11.432;2022-09-12T02:02:17;1.40;;;1.40;;
23179;SDS011;11758;45.756;11.432;2022-09-12T02:04:51;2.42;;;1.20;;
23179;SDS011;11758;45.756;11.432;2022-09-12T02:07:24;1.48;;;1.30;;
23179;SDS011;11758;45.756;11.432;2022-09-12T02:09:56;2.15;;;1.20;;
23179;SDS011;11758;45.756;11.432;2022-09-12T02:12:24;3.72;;;1.48;;
23179;SDS011;11758;45.756;11.432;2022-09-12T02:14:52;2.80;;;1.45;;
23179;SDS011;11758;45.756;11.432;2022-09-12T02:17:21;6.43;;;1.50;;
23179;SDS011;11758;45.756;11.432;2022-09-12T02:19:51;1.23;;;1.23;;
23179;SDS011;11758;45.756;11.432;2022-09-12T02:22:18;1.58;;;1.48;;
23179;SDS011;11758;45.756;11.432;2022-09-12T02:24:47;2.08;;;1.30;;
23179;SDS011;11758;45.756;11.432;2022-09-12T02:27:37;1.33;;;1.20;;
23179;SDS011;11758;45.756;11.432;2022-09-12T02:30:04;3.92;;;1.48;;
23179;SDS011;11758;45.756;11.432;2022-09-12T02:32:40;1.50;;;1.20;;
23179;SDS011;11758;45.756;11.432;2022-09-12T02:35:51;1.67;;;1.33;;
23179;SDS011;11758;45.756;11.432;2022-09-12T02:38:03;1.55;;;1.45;;
23179;SDS011;11758;45.756;11.432;2022-09-12T02:40:31;1.40;;;1.40;;
23179;SDS011;11758;45.756;11.432;2022-09-12T02:42:58;1.50;;;1.25;;
23179;SDS011;11758;45.756;11.432;2022-09-12T02:45:24;1.77;;;1.50;;
23179;SDS011;11758;45.756;11.432;2022-09-12T02:47:59;1.10;;;1.10;;
23179;SDS011;11758;45.756;11.432;2022-09-12T02:50:27;1.38;;;1.20;;
23179;SDS011;11758;45.756;11.432;2022-09-12T02:52:53;3.83;;;1.30;;
23179;SDS011;11758;45.756;11.432;2022-09-12T02:55:24;2.10;;;1.20;;
23179;SDS011;11758;45.756;11.432;2022-09-12T02:57:50;1.42;;;1.30;;
23179;SDS011;11758;45.756;11.432;2022-09-12T03:00:16;1.20;;;1.20;;
23179;SDS011;11758;45.756;11.432;2022-09-12T03:05:48;1.33;;;1.33;;
23179;SDS011;11758;45.756;11.432;2022-09-12T03:11:03;2.28;;;1.30;;
23179;SDS011;11758;45.756;11.432;2022-09-12T03:19:23;1.67;;;1.30;;
23179;SDS011;11758;45.756;11.432;2022-09-12T03:21:57;2.40;;;1.20;;
23179;SDS011;11758;45.756;11.432;2022-09-12T03:27:21;1.75;;;1.30;;
23179;SDS011;11758;45.756;11.432;2022-09-12T03:29:50;2.88;;;1.20;;
23179;SDS011;11758;45.756;11.432;2022-09-12T03:32:17;1.17;;;0.90;;
23179;SDS011;11758;45.756;11.432;2022-09-12T03:34:43;2.20;;;1.20;;
23179;SDS011;11758;45.756;11.432;2022-09-12T03:37:09;1.52;;;1.40;;
23179;SDS011;11758;45.756;11.432;2022-09-12T03:39:36;1.27;;;1.27;;
23179;SDS011;11758;45.756;11.432;2022-09-12T03:42:02;1.00;;;1.00;;
23179;SDS011;11758;45.756;11.432;2022-09-12T03:44:28;2.10;;;1.40;;
23179;SDS011;11758;45.756;11.432;2022-09-12T03:46:54;1.40;;;1.25;;
23179;SDS011;11758;45.756;11.432;2022-09-12T03:49:20;1.15;;;1.15;;
23179;SDS011;11758;45.756;11.432;2022-09-12T03:51:46;4.47;;;1.20;;
23179;SDS011;11758;45.756;11.432;2022-09-12T03:54:13;1.20;;;1.10;;
23179;SDS011;11758;45.756;11.432;2022-09-12T03:56:39;4.47;;;1.10;;
23179;SDS011;11758;45.756;11.432;2022-09-12T03:59:05;1.23;;;1.20;;
23179;SDS011;11758;45.756;11.432;2022-09-12T04:01:32;1.95;;;1.08;;
23179;SDS011;11758;45.756;11.432;2022-09-12T04:03:58;1.17;;;1.13;;
23179;SDS011;11758;45.756;11.432;2022-09-12T04:06:24;2.40;;;1.10;;
23179;SDS011;11758;45.756;11.432;2022-09-12T04:08:54;1.38;;;1.00;;
23179;SDS011;11758;45.756;11.432;2022-09-12T04:11:20;1.20;;;1.20;;
23179;SDS011;11758;45.756;11.432;2022-09-12T04:13:46;1.10;;;1.10;;
23179;SDS011;11758;45.756;11.432;2022-09-12T04:16:13;1.25;;;1.20;;
23179;SDS011;11758;45.756;11.432;2022-09-12T04:18:39;1.20;;;1.20;;
23179;SDS011;11758;45.756;11.432;2022-09-12T04:21:07;1.88;;;1.02;;
23179;SDS011;11758;45.756;11.432;2022-09-12T04:23:34;1.10;;;1.10;;
23179;SDS011;11758;45.756;11.432;2022-09-12T04:26:03;1.20;;;1.20;;
23179;SDS011;11758;45.756;11.432;2022-09-12T04:28:40;1.85;;;1.10;;
23179;SDS011;11758;45.756;11.432;2022-09-12T04:31:08;2.28;;;1.20;;
23179;SDS011;11758;45.756;11.432;2022-09-12T04:33:35;1.17;;;1.10;;
23179;SDS011;11758;45.756;11.432;2022-09-12T04:36:03;2.05;;;1.00;;
23179;SDS011;11758;45.756;11.432;2022-09-12T04:38:29;1.13;;;1.13;;
23179;SDS011;11758;45.756;11.432;2022-09-12T04:40:55;1.92;;;1.58;;
23179;SDS011;11758;45.756;11.432;2022-09-12T04:43:21;3.83;;;1.20;;
23179;SDS011;11758;45.756;11.432;2022-09-12T04:45:47;1.58;;;1.00;;
23179;SDS011;11758;45.756;11.432;2022-09-12T04:48:13;1.30;;;1.30;;
23179;SDS011;11758;45.756;11.432;2022-09-12T04:50:40;2.83;;;1.10;;
23179;SDS011;11758;45.756;11.432;2022-09-12T04:53:07;1.00;;;1.00;;
23179;SDS011;11758;45.756;11.432;2022-09-12T04:55:33;0.85;;;0.85;;
23179;SDS011;11758;45.756;11.432;2022-09-12T04:58:00;1.73;;;0.90;;
23179;SDS011;11758;45.756;11.432;2022-09-12T05:00:26;1.02;;;1.02;;
23179;SDS011;11758;45.756;11.432;2022-09-12T05:02:53;3.10;;;1.20;;
23179;SDS011;11758;45.756;11.432;2022-09-12T05:05:19;2.90;;;1.90;;
23179;SDS011;11758;45.756;11.432;2022-09-12T05:07:45;2.15;;;1.73;;
23179;SDS011;11758;45.756;11.432;2022-09-12T05:10:12;1.73;;;1.50;;
23179;SDS011;11758;45.756;11.432;2022-09-12T05:12:38;1.98;;;1.63;;
23179;SDS011;11758;45.756;11.432;2022-09-12T05:15:05;4.05;;;1.45;;
23179;SDS011;11758;45.756;11.432;2022-09-12T05:17:31;8.00;;;6.28;;
23179;SDS011;11758;45.756;11.432;2022-09-12T05:19:58;2.25;;;1.70;;
23179;SDS011;11758;45.756;11.432;2022-09-12T05:22:24;3.92;;;1.83;;
23179;SDS011;11758;45.756;11.432;2022-09-12T05:24:50;9.93;;;1.60;;
23179;SDS011;11758;45.756;11.432;2022-09-12T05:27:17;3.10;;;1.40;;
23179;SDS011;11758;45.756;11.432;2022-09-12T05:29:44;1.73;;;1.63;;
23179;SDS011;11758;45.756;11.432;2022-09-12T05:32:10;1.90;;;1.50;;
23179;SDS011;11758;45.756;11.432;2022-09-12T05:34:37;3.30;;;1.80;;
23179;SDS011;11758;45.756;11.432;2022-09-12T05:37:03;2.75;;;1.42;;
23179;SDS011;11758;45.756;11.432;2022-09-12T05:39:29;1.88;;;1.75;;
23179;SDS011;11758;45.756;11.432;2022-09-12T05:41:55;2.08;;;1.63;;
23179;SDS011;11758;45.756;11.432;2022-09-12T05:44:21;4.63;;;1.60;;
23179;SDS011;11758;45.756;11.432;2022-09-12T05:46:48;3.00;;;1.65;;
23179;SDS011;11758;45.756;11.432;2022-09-12T05:49:15;1.60;;;1.50;;
23179;SDS011;11758;45.756;11.432;2022-09-12T05:51:42;1.70;;;1.60;;
23179;SDS011;11758;45.756;11.432;2022-09-12T05:54:10;1.02;;;1.02;;
23179;SDS011;11758;45.756;11.432;2022-09-12T05:56:38;2.05;;;1.10;;
23179;SDS011;11758;45.756;11.432;2022-09-12T05:59:06;0.90;;;0.90;;
23179;SDS011;11758;45.756;11.432;2022-09-12T06:01:33;1.17;;;1.10;;
23179;SDS011;11758;45.756;11.432;2022-09-12T06:04:00;2.88;;;1.30;;
23179;SDS011;11758;45.756;11.432;2022-09-12T06:06:38;2.90;;;1.52;;
23179;SDS011;11758;45.756;11.432;2022-09-12T06:09:13;4.82;;;1.77;;
23179;SDS011;11758;45.756;11.432;2022-09-12T06:11:39;4.82;;;1.55;;
23179;SDS011;11758;45.756;11.432;2022-09-12T06:14:06;2.05;;;1.88;;
23179;SDS011;11758;45.756;11.432;2022-09-12T06:16:32;4.50;;;2.70;;
23179;SDS011;11758;45.756;11.432;2022-09-12T06:19:00;4.55;;;1.92;;
23179;SDS011;11758;45.756;11.432;2022-09-12T06:21:27;3.13;;;2.50;;
23179;SDS011;11758;45.756;11.432;2022-09-12T06:23:55;2.00;;;1.90;;
23179;SDS011;11758;45.756;11.432;2022-09-12T06:26:23;4.50;;;1.85;;
23179;SDS011;11758;45.756;11.432;2022-09-12T06:28:49;2.40;;;2.20;;
23179;SDS011;11758;45.756;11.432;2022-09-12T06:31:20;2.42;;;1.88;;
23179;SDS011;11758;45.756;11.432;2022-09-12T06:33:47;6.38;;;1.90;;
23179;SDS011;11758;45.756;11.432;2022-09-12T06:36:24;2.22;;;2.03;;
23179;SDS011;11758;45.756;11.432;2022-09-12T06:38:54;3.42;;;2.42;;
23179;SDS011;11758;45.756;11.432;2022-09-12T06:41:22;6.28;;;2.22;;
23179;SDS011;11758;45.756;11.432;2022-09-12T06:43:48;2.78;;;2.10;;
23179;SDS011;11758;45.756;11.432;2022-09-12T06:46:14;2.17;;;2.00;;
23179;SDS011;11758;45.756;11.432;2022-09-12T06:48:40;2.10;;;2.00;;
23179;SDS011;11758;45.756;11.432;2022-09-12T06:51:10;2.88;;;2.08;;
23179;SDS011;11758;45.756;11.432;2022-09-12T06:53:37;10.05;;;2.78;;
23179;SDS011;11758;45.756;11.432;2022-09-12T06:56:14;7.55;;;2.30;;
23179;SDS011;11758;45.756;11.432;2022-09-12T06:58:41;1.80;;;1.70;;
23179;SDS011;11758;45.756;11.432;2022-09-12T07:03:33;6.07;;;1.98;;
23179;SDS011;11758;45.756;11.432;2022-09-12T07:06:07;4.68;;;2.40;;
23179;SDS011;11758;45.756;11.432;2022-09-12T07:08:34;3.42;;;2.33;;
23179;SDS011;11758;45.756;11.432;2022-09-12T07:11:15;2.30;;;2.20;;
23179;SDS011;11758;45.756;11.432;2022-09-12T07:13:42;7.82;;;1.90;;
23179;SDS011;11758;45.756;11.432;2022-09-12T07:16:08;11.57;;;2.20;;
23179;SDS011;11758;45.756;11.432;2022-09-12T07:18:35;4.15;;;2.30;;
23179;SDS011;11758;45.756;11.432;2022-09-12T07:21:06;9.85;;;2.58;;
23179;SDS011;11758;45.756;11.432;2022-09-12T07:23:32;8.95;;;2.42;;
23179;SDS011;11758;45.756;11.432;2022-09-12T07:25:59;5.80;;;2.58;;
23179;SDS011;11758;45.756;11.432;2022-09-12T07:28:26;4.70;;;2.70;;
23179;SDS011;11758;45.756;11.432;2022-09-12T07:30:53;3.30;;;2.10;;
23179;SDS011;11758;45.756;11.432;2022-09-12T07:33:19;9.60;;;2.08;;
23179;SDS011;11758;45.756;11.432;2022-09-12T07:35:45;2.38;;;2.17;;
23179;SDS011;11758;45.756;11.432;2022-09-12T07:38:11;2.63;;;2.22;;
23179;SDS011;11758;45.756;11.432;2022-09-12T07:40:38;3.63;;;2.28;;
23179;SDS011;11758;45.756;11.432;2022-09-12T07:43:04;3.47;;;1.98;;
23179;SDS011;11758;45.756;11.432;2022-09-12T07:45:30;3.88;;;1.83;;
23179;SDS011;11758;45.756;11.432;2022-09-12T07:47:57;2.10;;;1.80;;
23179;SDS011;11758;45.756;11.432;2022-09-12T07:50:23;2.25;;;2.15;;
23179;SDS011;11758;45.756;11.432;2022-09-12T07:52:49;4.15;;;2.10;;
23179;SDS011;11758;45.756;11.432;2022-09-12T07:55:15;2.55;;;2.35;;
23179;SDS011;11758;45.756;11.432;2022-09-12T07:57:41;3.50;;;2.78;;
23179;SDS011;11758;45.756;11.432;2022-09-12T08:00:07;3.85;;;3.30;;
23179;SDS011;11758;45.756;11.432;2022-09-12T08:02:34;2.88;;;2.67;;
23179;SDS011;11758;45.756;11.432;2022-09-12T08:05:01;3.50;;;3.20;;
23179;SDS011;11758;45.756;11.432;2022-09-12T08:07:27;3.00;;;2.78;;
23179;SDS011;11758;45.756;11.432;2022-09-12T08:09:53;3.33;;;3.03;;
23179;SDS011;11758;45.756;11.432;2022-09-12T08:12:19;2.67;;;2.42;;
23179;SDS011;11758;45.756;11.432;2022-09-12T08:14:45;3.35;;;3.03;;
23179;SDS011;11758;45.756;11.432;2022-09-12T08:17:12;9.02;;;3.60;;
23179;SDS011;11758;45.756;11.432;2022-09-12T08:19:38;3.22;;;3.03;;
23179;SDS011;11758;45.756;11.432;2022-09-12T08:22:04;5.90;;;3.45;;
23179;SDS011;11758;45.756;11.432;2022-09-12T08:24:30;7.35;;;3.50;;
23179;SDS011;11758;45.756;11.432;2022-09-12T08:26:56;3.25;;;3.03;;
23179;SDS011;11758;45.756;11.432;2022-09-12T08:29:22;4.05;;;2.90;;
23179;SDS011;11758;45.756;11.432;2022-09-12T08:31:49;6.38;;;3.70;;
23179;SDS011;11758;45.756;11.432;2022-09-12T08:34:15;12.13;;;3.50;;
23179;SDS011;11758;45.756;11.432;2022-09-12T08:36:43;6.72;;;3.60;;
23179;SDS011;11758;45.756;11.432;2022-09-12T08:39:12;5.70;;;4.13;;
23179;SDS011;11758;45.756;11.432;2022-09-12T08:41:43;15.63;;;6.45;;
23179;SDS011;11758;45.756;11.432;2022-09-12T08:49:40;3.30;;;3.00;;
23179;SDS011;11758;45.756;11.432;2022-09-12T08:52:52;4.68;;;2.85;;
23179;SDS011;11758;45.756;11.432;2022-09-12T08:54:58;4.72;;;3.17;;
23179;SDS011;11758;45.756;11.432;2022-09-12T08:57:25;2.58;;;2.45;;
23179;SDS011;11758;45.756;11.432;2022-09-12T08:59:52;3.42;;;2.60;;
23179;SDS011;11758;45.756;11.432;2022-09-12T09:05:25;2.00;;;1.92;;
23179;SDS011;11758;45.756;11.432;2022-09-12T09:07:57;4.70;;;2.70;;
23179;SDS011;11758;45.756;11.432;2022-09-12T09:10:34;3.80;;;2.08;;
23179;SDS011;11758;45.756;11.432;2022-09-12T09:13:07;3.65;;;1.60;;
23179;SDS011;11758;45.756;11.432;2022-09-12T09:15:53;1.60;;;1.60;;
23179;SDS011;11758;45.756;11.432;2022-09-12T09:18:28;2.78;;;1.90;;
23179;SDS011;11758;45.756;11.432;2022-09-12T09:20:58;3.28;;;2.35;;
23179;SDS011;11758;45.756;11.432;2022-09-12T09:23:28;7.68;;;2.40;;
23179;SDS011;11758;45.756;11.432;2022-09-12T09:26:16;2.17;;;1.92;;
23179;SDS011;11758;45.756;11.432;2022-09-12T09:31:51;2.30;;;2.00;;
23179;SDS011;11758;45.756;11.432;2022-09-12T09:34:18;4.70;;;2.00;;
23179;SDS011;11758;45.756;11.432;2022-09-12T09:37:01;2.00;;;1.90;;
23179;SDS011;11758;45.756;11.432;2022-09-12T09:39:37;3.35;;;2.30;;
23179;SDS011;11758;45.756;11.432;2022-09-12T09:44:32;2.08;;;1.90;;
23179;SDS011;11758;45.756;11.432;2022-09-12T09:46:58;5.82;;;2.20;;
23179;SDS011;11758;45.756;11.432;2022-09-12T09:49:29;2.15;;;1.98;;
23179;SDS011;11758;45.756;11.432;2022-09-12T09:51:57;7.18;;;2.10;;
23179;SDS011;11758;45.756;11.432;2022-09-12T09:54:26;4.55;;;2.50;;
23179;SDS011;11758;45.756;11.432;2022-09-12T09:56:54;5.03;;;2.67;;
23179;SDS011;11758;45.756;11.432;2022-09-12T09:59:30;4.05;;;2.50;;
23179;SDS011;11758;45.756;11.432;2022-09-12T10:04:39;1.85;;;1.73;;
23179;SDS011;11758;45.756;11.432;2022-09-12T10:07:11;3.08;;;2.55;;
23179;SDS011;11758;45.756;11.432;2022-09-12T10:09:42;1.98;;;1.95;;
23179;SDS011;11758;45.756;11.432;2022-09-12T10:12:27;4.55;;;2.75;;
23179;SDS011;11758;45.756;11.432;2022-09-12T10:14:57;2.33;;;1.92;;
23179;SDS011;11758;45.756;11.432;2022-09-12T10:17:26;2.15;;;1.92;;
23179;SDS011;11758;45.756;11.432;2022-09-12T10:19:53;2.78;;;2.15;;
23179;SDS011;11758;45.756;11.432;2022-09-12T10:22:23;2.92;;;2.10;;
23179;SDS011;11758;45.756;11.432;2022-09-12T10:24:55;2.42;;;2.20;;
23179;SDS011;11758;45.756;11.432;2022-09-12T10:27:31;2.65;;;2.45;;
23179;SDS011;11758;45.756;11.432;2022-09-12T10:32:28;2.78;;;2.60;;
23179;SDS011;11758;45.756;11.432;2022-09-12T10:34:59;4.60;;;2.72;;
23179;SDS011;11758;45.756;11.432;2022-09-12T10:37:28;2.42;;;1.90;;
23179;SDS011;11758;45.756;11.432;2022-09-12T10:39:56;4.10;;;2.13;;
23179;SDS011;11758;45.756;11.432;2022-09-12T10:45:18;3.25;;;2.15;;
23179;SDS011;11758;45.756;11.432;2022-09-12T10:47:44;4.97;;;2.80;;
23179;SDS011;11758;45.756;11.432;2022-09-12T10:50:22;3.00;;;2.80;;
23179;SDS011;11758;45.756;11.432;2022-09-12T10:52:50;2.95;;;2.70;;
23179;SDS011;11758;45.756;11.432;2022-09-12T10:55:16;5.95;;;2.80;;
23179;SDS011;11758;45.756;11.432;2022-09-12T11:00:17;5.32;;;3.08;;
23179;SDS011;11758;45.756;11.432;2022-09-12T11:07:56;2.75;;;2.13;;
23179;SDS011;11758;45.756;11.432;2022-09-12T11:20:50;3.42;;;2.90;;
23179;SDS011;11758;45.756;11.432;2022-09-12T11:23:29;2.20;;;2.10;;
23179;SDS011;11758;45.756;11.432;2022-09-12T11:33:51;2.25;;;2.05;;
23179;SDS011;11758;45.756;11.432;2022-09-12T11:41:24;3.70;;;2.25;;
23179;SDS011;11758;45.756;11.432;2022-09-12T11:46:21;3.25;;;1.92;;
23179;SDS011;11758;45.756;11.432;2022-09-12T11:51:18;2.65;;;1.88;;
23179;SDS011;11758;45.756;11.432;2022-09-12T11:53:48;2.97;;;1.80;;
23179;SDS011;11758;45.756;11.432;2022-09-12T11:56:16;2.30;;;2.10;;
23179;SDS011;11758;45.756;11.432;2022-09-12T12:01:37;3.70;;;1.88;;
23179;SDS011;11758;45.756;11.432;2022-09-12T12:04:05;1.77;;;1.77;;
23179;SDS011;11758;45.756;11.432;2022-09-12T12:06:35;1.70;;;1.60;;
23179;SDS011;11758;45.756;11.432;2022-09-12T12:09:05;1.60;;;1.60;;
23179;SDS011;11758;45.756;11.432;2022-09-12T12:11:32;1.70;;;1.60;;
23179;SDS011;11758;45.756;11.432;2022-09-12T12:14:12;1.83;;;1.70;;
23179;SDS011;11758;45.756;11.432;2022-09-12T12:16:39;1.77;;;1.58;;
23179;SDS011;11758;45.756;11.432;2022-09-12T12:19:21;1.77;;;1.70;;
23179;SDS011;11758;45.756;11.432;2022-09-12T12:21:49;2.67;;;1.80;;
23179;SDS011;11758;45.756;11.432;2022-09-12T12:24:20;2.47;;;2.00;;
23179;SDS011;11758;45.756;11.432;2022-09-12T12:34:28;2.45;;;2.10;;
23179;SDS011;11758;45.756;11.432;2022-09-12T12:36:56;3.90;;;1.83;;
23179;SDS011;11758;45.756;11.432;2022-09-12T12:41:59;2.53;;;1.83;;
23179;SDS011;11758;45.756;11.432;2022-09-12T12:49:48;2.67;;;1.67;;
23179;SDS011;11758;45.756;11.432;2022-09-12T12:52:16;1.80;;;1.52;;
23179;SDS011;11758;45.756;11.432;2022-09-12T13:02:51;4.95;;;1.60;;
23179;SDS011;11758;45.756;11.432;2022-09-12T13:05:21;1.70;;;1.58;;
23179;SDS011;11758;45.756;11.432;2022-09-12T13:07:55;2.90;;;1.50;;
23179;SDS011;11758;45.756;11.432;2022-09-12T13:10:23;2.20;;;1.45;;
23179;SDS011;11758;45.756;11.432;2022-09-12T13:12:53;1.55;;;1.50;;
23179;SDS011;11758;45.756;11.432;2022-09-12T13:18:03;5.07;;;1.38;;
23179;SDS011;11758;45.756;11.432;2022-09-12T13:20:34;3.33;;;1.52;;
23179;SDS011;11758;45.756;11.432;2022-09-12T13:23:02;3.03;;;1.50;;
23179;SDS011;11758;45.756;11.432;2022-09-12T13:25:29;1.80;;;1.70;;
23179;SDS011;11758;45.756;11.432;2022-09-12T13:27:57;1.50;;;1.40;;
23179;SDS011;11758;45.756;11.432;2022-09-12T13:30:23;1.42;;;1.40;;
23179;SDS011;11758;45.756;11.432;2022-09-12T13:32:49;1.80;;;1.70;;
23179;SDS011;11758;45.756;11.432;2022-09-12T13:35:36;2.80;;;1.60;;
23179;SDS011;11758;45.756;11.432;2022-09-12T13:38:15;2.60;;;1.30;;
23179;SDS011;11758;45.756;11.432;2022-09-12T13:43:13;3.13;;;1.45;;
23179;SDS011;11758;45.756;11.432;2022-09-12T13:45:40;2.15;;;1.38;;
23179;SDS011;11758;45.756;11.432;2022-09-12T13:48:10;3.03;;;1.77;;
23179;SDS011;11758;45.756;11.432;2022-09-12T13:50:40;3.60;;;1.98;;
23179;SDS011;11758;45.756;11.432;2022-09-12T13:53:11;8.20;;;1.90;;
23179;SDS011;11758;45.756;11.432;2022-09-12T13:55:47;2.03;;;1.73;;
23179;SDS011;11758;45.756;11.432;2022-09-12T13:58:18;2.10;;;1.75;;
23179;SDS011;11758;45.756;11.432;2022-09-12T14:00:45;2.47;;;1.80;;
23179;SDS011;11758;45.756;11.432;2022-09-12T14:03:37;1.83;;;1.65;;
23179;SDS011;11758;45.756;11.432;2022-09-12T14:06:16;5.38;;;1.75;;
23179;SDS011;11758;45.756;11.432;2022-09-12T14:08:45;1.83;;;1.73;;
23179;SDS011;11758;45.756;11.432;2022-09-12T14:11:17;4.72;;;2.13;;
23179;SDS011;11758;45.756;11.432;2022-09-12T14:13:46;2.83;;;1.73;;
23179;SDS011;11758;45.756;11.432;2022-09-12T14:16:12;5.18;;;1.50;;
23179;SDS011;11758;45.756;11.432;2022-09-12T14:18:41;2.00;;;1.65;;
23179;SDS011;11758;45.756;11.432;2022-09-12T14:21:16;2.97;;;1.75;;
23179;SDS011;11758;45.756;11.432;2022-09-12T14:23:45;3.22;;;3.03;;
23179;SDS011;11758;45.756;11.432;2022-09-12T14:26:13;2.53;;;1.65;;
23179;SDS011;11758;45.756;11.432;2022-09-12T14:28:41;5.95;;;4.28;;
23179;SDS011;11758;45.756;11.432;2022-09-12T14:33:45;5.90;;;1.92;;
23179;SDS011;11758;45.756;11.432;2022-09-12T14:38:45;1.35;;;1.30;;
23179;SDS011;11758;45.756;11.432;2022-09-12T14:41:12;3.10;;;1.80;;
23179;SDS011;11758;45.756;11.432;2022-09-12T14:43:45;2.55;;;1.50;;
23179;SDS011;11758;45.756;11.432;2022-09-12T14:46:22;1.85;;;1.60;;
23179;SDS011;11758;45.756;11.432;2022-09-12T14:48:53;1.60;;;1.50;;
23179;SDS011;11758;45.756;11.432;2022-09-12T14:51:33;1.33;;;1.27;;
23179;SDS011;11758;45.756;11.432;2022-09-12T14:54:00;1.65;;;1.55;;
23179;SDS011;11758;45.756;11.432;2022-09-12T14:56:40;1.73;;;1.60;;
23179;SDS011;11758;45.756;11.432;2022-09-12T14:59:27;3.60;;;1.30;;
23179;SDS011;11758;45.756;11.432;2022-09-12T15:04:45;2.03;;;1.42;;
23179;SDS011;11758;45.756;11.432;2022-09-12T15:07:33;2.03;;;1.85;;
23179;SDS011;11758;45.756;11.432;2022-09-12T15:09:59;2.95;;;1.50;;
23179;SDS011;11758;45.756;11.432;2022-09-12T15:12:25;1.63;;;1.52;;
23179;SDS011;11758;45.756;11.432;2022-09-12T15:14:51;5.45;;;1.45;;
23179;SDS011;11758;45.756;11.432;2022-09-12T15:20:02;1.40;;;1.30;;
23179;SDS011;11758;45.756;11.432;2022-09-12T15:22:29;1.63;;;1.38;;
23179;SDS011;11758;45.756;11.432;2022-09-12T15:24:57;4.88;;;1.40;;
23179;SDS011;11758;45.756;11.432;2022-09-12T15:27:25;1.58;;;1.50;;
23179;SDS011;11758;45.756;11.432;2022-09-12T15:29:51;2.05;;;1.52;;
23179;SDS011;11758;45.756;11.432;2022-09-12T15:32:22;2.35;;;1.23;;
23179;SDS011;11758;45.756;11.432;2022-09-12T15:34:48;3.22;;;1.40;;
23179;SDS011;11758;45.756;11.432;2022-09-12T15:37:14;1.45;;;1.35;;
23179;SDS011;11758;45.756;11.432;2022-09-12T15:39:41;1.40;;;1.35;;
23179;SDS011;11758;45.756;11.432;2022-09-12T15:42:08;4.63;;;1.55;;
23179;SDS011;11758;45.756;11.432;2022-09-12T15:44:34;1.20;;;1.10;;
23179;SDS011;11758;45.756;11.432;2022-09-12T15:47:01;1.40;;;1.30;;
23179;SDS011;11758;45.756;11.432;2022-09-12T15:49:27;2.42;;;1.17;;
23179;SDS011;11758;45.756;11.432;2022-09-12T15:51:53;1.48;;;1.20;;
23179;SDS011;11758;45.756;11.432;2022-09-12T15:54:21;6.88;;;1.20;;
23179;SDS011;11758;45.756;11.432;2022-09-12T15:56:48;1.20;;;1.20;;
23179;SDS011;11758;45.756;11.432;2022-09-12T15:59:14;2.60;;;1.20;;
23179;SDS011;11758;45.756;11.432;2022-09-12T16:01:41;1.38;;;1.10;;
23179;SDS011;11758;45.756;11.432;2022-09-12T16:04:20;2.22;;;1.15;;
23179;SDS011;11758;45.756;11.432;2022-09-12T16:06:47;1.63;;;1.50;;
23179;SDS011;11758;45.756;11.432;2022-09-12T16:09:13;1.15;;;1.13;;
23179;SDS011;11758;45.756;11.432;2022-09-12T16:11:40;1.00;;;1.00;;
23179;SDS011;11758;45.756;11.432;2022-09-12T16:14:06;3.55;;;1.50;;
23179;SDS011;11758;45.756;11.432;2022-09-12T16:16:32;2.83;;;2.65;;
23179;SDS011;11758;45.756;11.432;2022-09-12T16:18:59;2.53;;;1.35;;
23179;SDS011;11758;45.756;11.432;2022-09-12T16:21:27;3.75;;;1.40;;
23179;SDS011;11758;45.756;11.432;2022-09-12T16:23:58;2.25;;;1.25;;
23179;SDS011;11758;45.756;11.432;2022-09-12T16:26:24;2.30;;;1.65;;
23179;SDS011;11758;45.756;11.432;2022-09-12T16:28:55;1.40;;;1.38;;
23179;SDS011;11758;45.756;11.432;2022-09-12T16:31:22;2.15;;;1.50;;
23179;SDS011;11758;45.756;11.432;2022-09-12T16:33:48;1.30;;;1.30;;
23179;SDS011;11758;45.756;11.432;2022-09-12T16:36:16;5.40;;;1.65;;
23179;SDS011;11758;45.756;11.432;2022-09-12T16:38:43;3.47;;;1.55;;
23179;SDS011;11758;45.756;11.432;2022-09-12T16:41:11;1.63;;;1.50;;
23179;SDS011;11758;45.756;11.432;2022-09-12T16:43:38;8.57;;;1.70;;
23179;SDS011;11758;45.756;11.432;2022-09-12T16:46:06;4.97;;;1.60;;
23179;SDS011;11758;45.756;11.432;2022-09-12T16:48:32;1.60;;;1.50;;
23179;SDS011;11758;45.756;11.432;2022-09-12T16:50:59;4.10;;;1.75;;
23179;SDS011;11758;45.756;11.432;2022-09-12T16:53:28;1.45;;;1.35;;
23179;SDS011;11758;45.756;11.432;2022-09-12T16:55:55;2.15;;;2.05;;